Time;durP1;ratioP1;P1;durP2;ratioP2;P2;SDS_P1;SDS_P2;PMS_P1;PMS_P2;Temp;Humidity;BMP_temperature;BMP_pressure;BME280_temperature;BME280_humidity;BME280_pressure;Samples;Min_cycle;Max_cycle;Signal;HPM_P1;HPM_P2
2023/02/21 02:15:27;;;;;;;;;;;;;;;;;;5033461;28;19921;-87
2023/02/21 02:18:11;;;;;;;;;;;;;;;;;;5010221;28;19917;-87
2023/02/21 02:20:42;;;;;;;;;;;;;;;;;;5033311;28;19918;-87
2023/02/21 02:23:14;;;;;;;;;;;;;;;;;;5033115;28;19921;-88
2023/02/21 02:25:51;;;;;;;;;;;;;;;;;;5032592;28;20280;-84
2023/02/21 02:28:40;;;;;;;;;;;;;;;;;;5033459;28;19929;-88
2023/02/21 02:31:11;;;;;;;;;;;;;;;;;;5032178;28;19924;-86
2023/02/21 02:34:00;;;;;;;;;;;;;;;;;;5033336;28;19917;-86
2023/02/21 02:36:25;;;;;;;;;;;;;;;;;;5025234;28;19917;-85
2023/02/21 02:39:14;;;;;;;;;;;;;;;;;;5032023;28;20052;-87
2023/02/21 02:42:08;;;;;;;;;;;;;;;;;;5033291;28;20377;-85
2023/02/21 02:44:41;;;;;;;;;;;;;;;;;;5018949;28;19918;-86
2023/02/21 02:47:11;;;;;;;;;;;;;;;;;;5031911;28;19971;-88
2023/02/21 02:49:39;;;;;;;;;;;;;;;;;;5032008;28;20020;-87
2023/02/21 02:52:06;;;;;;;;;;;;;;;;;;5031950;28;19924;-87
2023/02/21 02:54:31;;;;;;;;;;;;;;;;;;5032359;28;19921;-88
2023/02/21 02:56:58;;;;;;;;;;;;;;;;;;5033433;28;20428;-88
2023/02/21 02:59:26;;;;;;;;;;;;;;;;;;5033401;28;19971;-87
2023/02/21 03:02:14;;;;;;;;;;;;;;;;;;5033090;28;19921;-86
2023/02/21 03:04:50;;;;;;;;;;;;;;;;;;5023804;28;19964;-85
2023/02/21 03:07:35;;;;;;;;;;;;;;;;;;5031796;28;19917;-86
2023/02/21 03:10:19;;;;;;;;;;;;;;;;;;5039963;28;19919;-86
2023/02/21 03:12:44;;;;;;;;;;;;;;;;;;5047442;28;20415;-86
2023/02/21 03:15:16;;;;;;;;;;;;;;;;;;5055935;28;19943;-86
2023/02/21 03:17:44;;;;;;;;;;;;;;;;;;5048857;28;19913;-86
2023/02/21 03:20:10;;;;;;;;;;;;;;;;;;5032346;28;19921;-87
2023/02/21 03:22:37;;;;;;;;;;;;;;;;;;5034671;28;19913;-86
2023/02/21 03:25:03;;;;;;;;;;;;;;;;;;5032827;28;20262;-87
2023/02/21 03:27:30;;;;;;;;;;;;;;;;;;5032423;28;20400;-87
2023/02/21 03:29:57;;;;;;;;;;;;;;;;;;5036663;28;19920;-87
2023/02/21 03:34:48;;;;;;;;;;;;;;;;;;5036494;28;19913;-88
2023/02/21 03:37:34;;;;;;;;;;;;;;;;;;5036508;28;20320;-88
2023/02/21 03:40:00;;;;;;;;;;;;;;;;;;5036376;28;19917;-88
2023/02/21 03:42:25;;;;;;;;;;;;;;;;;;5018511;28;19971;-87
2023/02/21 03:44:51;;;;;;;;;;;;;;;;;;5036184;28;20382;-86
2023/02/21 03:47:16;;;;;;;;;;;;;;;;;;5018417;28;20007;-88
2023/02/21 03:49:42;;;;;;;;;;;;;;;;;;5036380;28;19922;-86
2023/02/21 03:52:11;;;;;;;;;;;;;;;;;;5036163;28;20384;-88
2023/02/21 03:54:37;;;;;;;;;;;;;;;;;;5034592;28;19925;-86
2023/02/21 03:57:02;;;;;;;;;;;;;;;;;;5034906;28;20439;-87
2023/02/21 03:59:28;;;;;;;;;;;;;;;;;;5035776;28;19917;-86
2023/02/21 04:01:53;;;;;;;;;;;;;;;;;;5035813;28;19920;-87
2023/02/21 04:04:18;;;;;;;;;;;;;;;;;;5034504;28;19921;-88
2023/02/21 04:06:44;;;;;;;;;;;;;;;;;;5017915;28;19924;-87
2023/02/21 04:09:09;;;;;;;;;;;;;;;;;;5035688;28;19939;-86
2023/02/21 04:11:35;;;;;;;;;;;;;;;;;;5035574;28;20288;-88
2023/02/21 04:14:00;;;;;;;;;;;;;;;;;;5034456;28;19924;-86
2023/02/21 04:16:25;;;;;;;;;;;;;;;;;;5034321;28;19917;-86
2023/02/21 04:18:51;;;;;;;;;;;;;;;;;;5035583;28;19928;-86
2023/02/21 04:21:17;;;;;;;;;;;;;;;;;;5035498;28;19921;-87
2023/02/21 04:23:43;;;;;;;;;;;;;;;;;;5035282;28;20407;-85
2023/02/21 04:26:08;;;;;;;;;;;;;;;;;;5034132;28;20035;-87
2023/02/21 04:28:34;;;;;;;;;;;;;;;;;;5035474;28;19963;-86
2023/02/21 04:30:59;;;;;;;;;;;;;;;;;;5035353;28;20012;-87
2023/02/21 04:33:24;;;;;;;;;;;;;;;;;;5050594;28;19924;-87
2023/02/21 04:35:50;;;;;;;;;;;;;;;;;;5035398;28;19925;-87
2023/02/21 04:38:15;;;;;;;;;;;;;;;;;;5035034;28;19917;-86
2023/02/21 04:40:41;;;;;;;;;;;;;;;;;;5034006;28;20420;-86
2023/02/21 04:43:06;;;;;;;;;;;;;;;;;;5017345;28;19918;-86
2023/02/21 04:45:31;;;;;;;;;;;;;;;;;;5050311;28;19940;-88
2023/02/21 04:47:57;;;;;;;;;;;;;;;;;;5035066;28;19917;-87
2023/02/21 04:50:22;;;;;;;;;;;;;;;;;;5034999;28;19918;-86
2023/02/21 04:52:48;;;;;;;;;;;;;;;;;;5035049;28;19921;-87
2023/02/21 04:55:14;;;;;;;;;;;;;;;;;;5034994;28;20387;-87
2023/02/21 04:57:39;;;;;;;;;;;;;;;;;;5033529;28;20440;-85
2023/02/21 05:00:06;;;;;;;;;;;;;;;;;;5034788;28;19917;-87
2023/02/21 05:02:31;;;;;;;;;;;;;;;;;;5016940;28;19925;-87
2023/02/21 05:04:57;;;;;;;;;;;;;;;;;;5033287;28;20368;-86
2023/02/21 05:07:22;;;;;;;;;;;;;;;;;;5035055;28;19924;-88
2023/02/21 05:09:48;;;;;;;;;;;;;;;;;;5033630;28;19971;-87
2023/02/21 05:12:14;;;;;;;;;;;;;;;;;;5034598;28;19956;-88
2023/02/21 05:14:39;;;;;;;;;;;;;;;;;;5034403;28;19921;-87
2023/02/21 05:17:05;;;;;;;;;;;;;;;;;;5033203;28;19947;-87
2023/02/21 05:19:31;;;;;;;;;;;;;;;;;;5034422;28;20328;-88
2023/02/21 05:21:57;;;;;;;;;;;;;;;;;;5033852;28;20373;-86
2023/02/21 05:24:23;;;;;;;;;;;;;;;;;;5032470;28;19925;-87
2023/02/21 05:26:48;;;;;;;;;;;;;;;;;;5016638;28;20004;-86
2023/02/21 05:29:14;;;;;;;;;;;;;;;;;;5034258;28;19924;-87
2023/02/21 05:31:39;;;;;;;;;;;;;;;;;;5034370;28;19925;-86
2023/02/21 05:34:05;;;;;;;;;;;;;;;;;;5032852;28;19917;-86
2023/02/21 05:36:30;;;;;;;;;;;;;;;;;;5034201;28;19917;-87
2023/02/21 05:38:56;;;;;;;;;;;;;;;;;;5034061;28;19996;-87
2023/02/21 05:41:21;;;;;;;;;;;;;;;;;;5034168;28;19921;-87
2023/02/21 05:43:47;;;;;;;;;;;;;;;;;;5033956;28;19921;-87
2023/02/21 05:46:21;;;;;;;;;;;;;;;;;;5015970;28;20301;-86
2023/02/21 05:48:46;;;;;;;;;;;;;;;;;;5032560;28;19921;-87
2023/02/21 05:51:12;;;;;;;;;;;;;;;;;;5033120;28;19974;-86
2023/02/21 05:53:38;;;;;;;;;;;;;;;;;;5033703;28;20323;-86
2023/02/21 05:56:03;;;;;;;;;;;;;;;;;;5032555;28;20304;-86
2023/02/21 05:58:28;;;;;;;;;;;;;;;;;;5033655;28;19921;-86
2023/02/21 06:00:54;;;;;;;;;;;;;;;;;;5033596;28;19917;-86
2023/02/21 06:03:19;;;;;;;;;;;;;;;;;;5032393;28;19917;-86
2023/02/21 06:05:45;;;;;;;;;;;;;;;;;;5033491;28;20039;-86
2023/02/21 06:08:10;;;;;;;;;;;;;;;;;;5032274;28;19921;-86
2023/02/21 06:10:35;;;;;;;;;;;;;;;;;;5015704;28;19921;-85
2023/02/21 06:13:01;;;;;;;;;;;;;;;;;;5033518;28;19922;-86
2023/02/21 06:15:26;;;;;;;;;;;;;;;;;;5032066;28;20320;-87
2023/02/21 06:17:52;;;;;;;;;;;;;;;;;;5033392;28;20380;-88
2023/02/21 06:20:18;;;;;;;;;;;;;;;;;;5033351;28;20289;-88
2023/02/21 06:22:43;;;;;;;;;;;;;;;;;;5033328;28;19925;-88
2023/02/21 06:25:09;;;;;;;;;;;;;;;;;;5031956;28;20381;-87
2023/02/21 06:27:35;;;;;;;;;;;;;;;;;;5033361;28;19917;-88
2023/02/21 06:30:01;;;;;;;;;;;;;;;;;;5033222;28;20435;-86
2023/02/21 06:32:26;;;;;;;;;;;;;;;;;;5033255;28;19921;-87
2023/02/21 06:34:52;;;;;;;;;;;;;;;;;;5033204;28;19960;-86
2023/02/21 06:37:18;;;;;;;;;;;;;;;;;;5033183;28;19978;-87
2023/02/21 06:39:43;;;;;;;;;;;;;;;;;;5033213;28;19917;-87
2023/02/21 06:42:12;;;;;;;;;;;;;;;;;;5031846;28;19917;-86
2023/02/21 06:44:37;;;;;;;;;;;;;;;;;;5033076;28;19921;-86
2023/02/21 06:47:03;;;;;;;;;;;;;;;;;;5033047;28;19924;-88
2023/02/21 06:49:28;;;;;;;;;;;;;;;;;;5033048;28;19917;-87
2023/02/21 06:51:53;;;;;;;;;;;;;;;;;;5031694;28;19917;-86
2023/02/21 06:54:19;;;;;;;;;;;;;;;;;;5032930;28;19921;-87
2023/02/21 06:56:44;;;;;;;;;;;;;;;;;;5033047;28;20327;-85
2023/02/21 06:59:10;;;;;;;;;;;;;;;;;;5033033;28;19960;-86
2023/02/21 07:01:35;;;;;;;;;;;;;;;;;;5034011;28;19917;-86
2023/02/21 07:04:01;;;;;;;;;;;;;;;;;;5037039;28;19921;-86
2023/02/21 07:06:27;;;;;;;;;;;;;;;;;;5019680;28;19999;-87
2023/02/21 07:08:52;;;;;;;;;;;;;;;;;;5035918;28;19952;-87
2023/02/21 07:11:18;;;;;;;;;;;;;;;;;;5036878;28;20389;-86
2023/02/21 07:13:50;;;;;;;;;;;;;;;;;;5036845;28;20380;-87
2023/02/21 07:16:16;;;;;;;;;;;;;;;;;;5037246;28;19965;-87
2023/02/21 07:18:42;;;;;;;;;;;;;;;;;;5036710;28;20369;-84
2023/02/21 07:21:08;;;;;;;;;;;;;;;;;;5045146;28;19907;-85
2023/02/21 07:23:33;;;;;;;;;;;;;;;;;;5048271;28;20393;-84
2023/02/21 07:25:59;;;;;;;;;;;;;;;;;;5056673;28;19917;-84
2023/02/21 07:28:24;;;;;;;;;;;;;;;;;;5057380;28;20262;-85
2023/02/21 07:30:50;;;;;;;;;;;;;;;;;;5037674;28;20383;-84
2023/02/21 07:33:15;;;;;;;;;;;;;;;;;;5036722;28;19921;-87
2023/02/21 07:35:40;;;;;;;;;;;;;;;;;;5035170;28;20000;-85
2023/02/21 07:38:06;;;;;;;;;;;;;;;;;;5036396;28;19921;-85
2023/02/21 07:40:31;;;;;;;;;;;;;;;;;;5052029;28;19924;-85
2023/02/21 07:42:57;;;;;;;;;;;;;;;;;;5035125;28;20008;-83
2023/02/21 07:45:22;;;;;;;;;;;;;;;;;;5036522;28;19917;-84
2023/02/21 07:47:49;;;;;;;;;;;;;;;;;;5034994;28;19960;-83
2023/02/21 07:50:16;;;;;;;;;;;;;;;;;;5036219;28;19975;-83
2023/02/21 07:52:41;;;;;;;;;;;;;;;;;;5034921;28;19986;-84
2023/02/21 07:55:07;;;;;;;;;;;;;;;;;;5036094;28;20432;-83
2023/02/21 07:57:32;;;;;;;;;;;;;;;;;;5035908;28;20308;-83
2023/02/21 07:59:58;;;;;;;;;;;;;;;;;;5034768;28;20006;-84
2023/02/21 08:02:23;;;;;;;;;;;;;;;;;;5035942;28;19922;-83
2023/02/21 08:04:49;;;;;;;;;;;;;;;;;;5035766;28;20004;-82
2023/02/21 08:07:14;;;;;;;;;;;;;;;;;;5035791;28;19917;-83
2023/02/21 08:09:40;;;;;;;;;;;;;;;;;;5034620;28;20296;-84
2023/02/21 08:12:05;;;;;;;;;;;;;;;;;;5035743;28;19917;-84
2023/02/21 08:14:31;;;;;;;;;;;;;;;;;;5033830;28;19921;-82
2023/02/21 08:16:56;;;;;;;;;;;;;;;;;;5035717;28;20040;-83
2023/02/21 08:19:21;;;;;;;;;;;;;;;;;;5035723;28;19921;-85
2023/02/21 08:21:48;;;;;;;;;;;;;;;;;;5035545;28;20409;-85
2023/02/21 08:24:14;;;;;;;;;;;;;;;;;;5035228;28;19974;-84
2023/02/21 09:00:16;;;;;;;;;;;;;;;;;;5197870;23;20363;-85
2023/02/21 09:02:42;;;;;;;;;;;;;;;;;;5054274;28;19923;-87
2023/02/21 09:05:12;;;;;;;;;;;;;;;;;;5055342;28;19917;-85
2023/02/21 09:07:38;;;;;;;;;;;;;;;;;;5053766;28;20315;-85
2023/02/21 09:10:03;;;;;;;;;;;;;;;;;;5055261;28;19916;-86
2023/02/21 09:12:29;;;;;;;;;;;;;;;;;;5055326;28;19917;-84
2023/02/21 09:14:54;;;;;;;;;;;;;;;;;;5053896;28;19917;-85
2023/02/21 09:17:20;;;;;;;;;;;;;;;;;;5055115;28;20433;-86
2023/02/21 09:19:45;;;;;;;;;;;;;;;;;;5055008;28;20354;-85
2023/02/21 09:22:10;;;;;;;;;;;;;;;;;;5055354;28;19921;-88
2023/02/21 09:24:36;;;;;;;;;;;;;;;;;;5054332;28;19979;-88
2023/02/21 09:27:02;;;;;;;;;;;;;;;;;;5053130;28;19917;-87
2023/02/21 09:29:28;;;;;;;;;;;;;;;;;;5053687;28;19917;-85
2023/02/21 09:31:53;;;;;;;;;;;;;;;;;;5054833;28;19916;-87
2023/02/21 09:34:19;;;;;;;;;;;;;;;;;;5055169;28;20315;-86
2023/02/21 09:36:46;;;;;;;;;;;;;;;;;;5054720;28;20391;-85
2023/02/21 09:39:12;;;;;;;;;;;;;;;;;;5053341;28;20019;-86
2023/02/21 09:41:38;;;;;;;;;;;;;;;;;;5054958;28;20047;-85
2023/02/21 09:44:05;;;;;;;;;;;;;;;;;;5053329;28;19917;-87
2023/02/21 09:46:36;;;;;;;;;;;;;;;;;;5054909;28;20260;-85
2023/02/21 09:49:03;;;;;;;;;;;;;;;;;;5070310;28;20463;-82
2023/02/21 09:51:29;;;;;;;;;;;;;;;;;;5072246;28;19923;-82
2023/02/21 09:53:55;;;;;;;;;;;;;;;;;;5070728;28;19917;-83
2023/02/21 09:56:27;;;;;;;;;;;;;;;;;;5070811;28;19959;-83
2023/02/21 09:58:52;;;;;;;;;;;;;;;;;;5059882;28;19921;-83
2023/02/21 10:01:44;;;;;;;;;;;;;;;;;;5054753;28;19939;-83
2023/02/21 10:04:29;;;;;;;;;;;;;;;;;;5054259;28;20017;-83
2023/02/21 10:06:57;;;;;;;;;;;;;;;;;;5053248;28;19916;-83
2023/02/21 10:09:26;;;;;;;;;;;;;;;;;;5054610;28;19917;-82
2023/02/21 10:11:59;;;;;;;;;;;;;;;;;;5054436;28;19921;-82
2023/02/21 10:14:39;;;;;;;;;;;;;;;;;;5054868;28;20015;-83
2023/02/21 10:17:17;;;;;;;;;;;;;;;;;;5054370;28;19956;-83
2023/02/21 10:19:43;;;;;;;;;;;;;;;;;;5053111;28;19916;-84
2023/02/21 10:22:19;;;;;;;;;;;;;;;;;;5054210;28;19921;-85
2023/02/21 10:24:44;;;;;;;;;;;;;;;;;;5052701;28;19946;-83
2023/02/21 10:27:20;;;;;;;;;;;;;;;;;;5054009;28;19921;-83
2023/02/21 10:29:58;;;;;;;;;;;;;;;;;;5054385;28;19913;-83
2023/02/21 10:32:24;;;;;;;;;;;;;;;;;;5054142;28;19921;-83
2023/02/21 10:34:50;;;;;;;;;;;;;;;;;;5054031;28;19913;-82
2023/02/21 10:37:23;;;;;;;;;;;;;;;;;;5053873;28;20019;-83
2023/02/21 10:39:50;;;;;;;;;;;;;;;;;;5054315;28;20003;-83
2023/02/21 10:42:30;;;;;;;;;;;;;;;;;;5054012;28;20011;-83
2023/02/21 10:44:56;;;;;;;;;;;;;;;;;;5053992;28;19924;-82
2023/02/21 10:47:25;;;;;;;;;;;;;;;;;;5053981;28;19921;-83
2023/02/21 10:49:50;;;;;;;;;;;;;;;;;;5054169;28;19917;-83
2023/02/21 10:52:17;;;;;;;;;;;;;;;;;;5052512;28;20282;-83
2023/02/21 10:54:59;;;;;;;;;;;;;;;;;;5054184;28;19917;-82
2023/02/21 10:57:25;;;;;;;;;;;;;;;;;;5052657;28;19978;-83
2023/02/21 10:59:50;;;;;;;;;;;;;;;;;;5053679;28;19920;-83
2023/02/21 11:02:25;;;;;;;;;;;;;;;;;;5053757;28;20436;-83
2023/02/21 11:04:52;;;;;;;;;;;;;;;;;;5053878;28;19921;-84
2023/02/21 11:07:17;;;;;;;;;;;;;;;;;;5053817;28;20398;-83
2023/02/21 11:09:46;;;;;;;;;;;;;;;;;;5053657;28;19921;-84
2023/02/21 11:12:15;;;;;;;;;;;;;;;;;;5052413;28;19933;-83
2023/02/21 11:14:41;;;;;;;;;;;;;;;;;;5054110;28;19966;-83
2023/02/21 11:17:12;;;;;;;;;;;;;;;;;;5053644;28;20004;-83
2023/02/21 11:19:54;;;;;;;;;;;;;;;;;;5052412;28;19920;-83
2023/02/21 11:22:41;;;;;;;;;;;;;;;;;;5053498;28;19917;-82
2023/02/21 11:25:27;;;;;;;;;;;;;;;;;;5053832;28;19921;-83
2023/02/21 11:28:02;;;;;;;;;;;;;;;;;;5052099;28;19917;-84
2023/02/21 11:30:27;;;;;;;;;;;;;;;;;;5054027;28;19966;-82
2023/02/21 11:32:57;;;;;;;;;;;;;;;;;;5053328;28;20014;-83
2023/02/21 11:35:31;;;;;;;;;;;;;;;;;;5054012;28;20015;-85
2023/02/21 11:37:58;;;;;;;;;;;;;;;;;;5053463;28;20333;-83
2023/02/21 11:40:23;;;;;;;;;;;;;;;;;;5052035;28;19928;-82
2023/02/21 11:42:49;;;;;;;;;;;;;;;;;;5052183;28;20288;-83
2023/02/21 11:45:28;;;;;;;;;;;;;;;;;;5053107;28;19921;-83
2023/02/21 11:48:05;;;;;;;;;;;;;;;;;;5053226;28;19970;-83
2023/02/21 11:50:38;;;;;;;;;;;;;;;;;;5057054;28;20019;-83
2023/02/21 11:53:15;;;;;;;;;;;;;;;;;;5056752;28;19924;-86
2023/02/21 11:55:47;;;;;;;;;;;;;;;;;;5055493;28;19920;-86
2023/02/21 11:58:37;;;;;;;;;;;;;;;;;;5055397;28;20298;-86
2023/02/21 12:01:07;;;;;;;;;;;;;;;;;;5055382;28;19982;-85
2023/02/21 12:03:51;;;;;;;;;;;;;;;;;;5055319;28;19924;-87
2023/02/21 12:06:31;;;;;;;;;;;;;;;;;;5056433;28;19917;-86
2023/02/21 12:09:01;;;;;;;;;;;;;;;;;;5056457;28;19921;-87
2023/02/21 12:11:31;;;;;;;;;;;;;;;;;;5056636;28;20015;-86
2023/02/21 12:14:15;;;;;;;;;;;;;;;;;;5056705;28;19921;-87
2023/02/21 12:16:52;;;;;;;;;;;;;;;;;;5056249;28;20288;-87
2023/02/21 12:19:25;;;;;;;;;;;;;;;;;;5056264;28;19928;-86
2023/02/21 12:21:56;;;;;;;;;;;;;;;;;;5056394;28;19916;-86
2023/02/21 12:24:48;;;;;;;;;;;;;;;;;;5056460;28;20295;-87
2023/02/21 12:27:22;;;;;;;;;;;;;;;;;;5053440;28;20359;-87
2023/02/21 12:30:07;;;;;;;;;;;;;;;;;;5056139;28;20282;-87
2023/02/21 12:32:59;;;;;;;;;;;;;;;;;;5054888;28;19928;-87
2023/02/21 12:35:34;;;;;;;;;;;;;;;;;;5054800;28;19916;-86
2023/02/21 12:38:38;;;;;;;;;;;;;;;;;;5054615;28;19960;-86
2023/02/21 12:41:42;;;;;;;;;;;;;;;;;;5034203;28;19917;-87
2023/02/21 12:44:07;;;;;;;;;;;;;;;;;;5033802;28;19921;-86
2023/02/21 12:47:01;;;;;;;;;;;;;;;;;;5016798;28;19956;-87
2023/02/21 12:49:41;;;;;;;;;;;;;;;;;;5026456;28;19917;-86
2023/02/21 12:52:17;;;;;;;;;;;;;;;;;;5016772;28;19921;-85
2023/02/21 12:54:43;;;;;;;;;;;;;;;;;;5033485;28;19917;-85
2023/02/21 12:57:11;;;;;;;;;;;;;;;;;;5016867;28;19921;-86
2023/02/21 12:59:48;;;;;;;;;;;;;;;;;;5033068;28;20021;-86
2023/02/21 13:02:33;;;;;;;;;;;;;;;;;;5016840;28;19927;-86
2023/02/21 13:05:06;;;;;;;;;;;;;;;;;;5033307;28;19975;-87
2023/02/21 13:07:31;;;;;;;;;;;;;;;;;;5033181;28;19928;-87
2023/02/21 13:10:04;;;;;;;;;;;;;;;;;;5016671;28;19924;-87
2023/02/21 13:12:45;;;;;;;;;;;;;;;;;;5062134;28;19921;-87
2023/02/21 13:15:21;;;;;;;;;;;;;;;;;;5053911;28;20291;-86
2023/02/21 13:17:54;;;;;;;;;;;;;;;;;;5053750;28;19921;-87
2023/02/21 13:20:21;;;;;;;;;;;;;;;;;;5055219;28;19917;-86
2023/02/21 13:26:03;;;;;;;;;;;;;;;;;;5055099;28;19924;-89
2023/02/21 13:28:30;;;;;;;;;;;;;;;;;;5054149;28;20077;-89
2023/02/21 13:30:58;;;;;;;;;;;;;;;;;;5055428;28;20368;-88
2023/02/21 13:33:29;;;;;;;;;;;;;;;;;;5055304;28;19967;-91
2023/02/21 13:35:59;;;;;;;;;;;;;;;;;;5053684;28;19912;-88
2023/02/21 13:38:25;;;;;;;;;;;;;;;;;;5053871;28;19921;-90
2023/02/21 13:40:52;;;;;;;;;;;;;;;;;;5050185;28;19917;-90
2023/02/21 13:43:21;;;;;;;;;;;;;;;;;;5047936;28;19921;-90
2023/02/21 13:45:46;;;;;;;;;;;;;;;;;;5056764;28;19924;-89
2023/02/21 13:48:20;;;;;;;;;;;;;;;;;;5073329;28;19913;-89
2023/02/21 13:50:46;;;;;;;;;;;;;;;;;;5074255;28;19939;-87
2023/02/21 13:53:30;;;;;;;;;;;;;;;;;;5077209;28;19921;-86
2023/02/21 13:55:58;;;;;;;;;;;;;;;;;;5064979;28;19921;-86
2023/02/21 13:58:33;;;;;;;;;;;;;;;;;;5054779;28;19927;-86
2023/02/21 14:01:21;;;;;;;;;;;;;;;;;;5053898;28;20316;-88
2023/02/21 14:03:47;;;;;;;;;;;;;;;;;;5053610;28;20002;-85
2023/02/21 14:06:22;;;;;;;;;;;;;;;;;;5055958;28;19917;-87
2023/02/21 14:08:48;;;;;;;;;;;;;;;;;;5053515;28;19928;-81
2023/02/21 14:11:22;;;;;;;;;;;;;;;;;;5054969;28;19917;-83
2023/02/21 14:13:52;;;;;;;;;;;;;;;;;;5054332;28;19925;-82
2023/02/21 14:16:21;;;;;;;;;;;;;;;;;;5054212;28;19970;-85
2023/02/21 14:18:54;;;;;;;;;;;;;;;;;;5054164;28;19966;-83
2023/02/21 14:21:34;;;;;;;;;;;;;;;;;;5052782;28;20368;-83
2023/02/21 14:24:09;;;;;;;;;;;;;;;;;;5052726;28;19921;-82
2023/02/21 14:26:50;;;;;;;;;;;;;;;;;;5054240;28;19917;-84
2023/02/21 14:29:27;;;;;;;;;;;;;;;;;;5054090;28;19966;-84
2023/02/21 14:32:00;;;;;;;;;;;;;;;;;;5054227;28;19962;-83
2023/02/21 14:34:26;;;;;;;;;;;;;;;;;;5052673;28;19920;-88
2023/02/21 14:36:53;;;;;;;;;;;;;;;;;;5052726;28;19923;-85
2023/02/21 14:39:19;;;;;;;;;;;;;;;;;;5052703;28;19928;-86
2023/02/21 14:42:03;;;;;;;;;;;;;;;;;;5052512;28;19917;-87
2023/02/21 14:44:38;;;;;;;;;;;;;;;;;;5053922;28;19920;-86
2023/02/21 14:47:03;;;;;;;;;;;;;;;;;;5054076;28;19923;-87
2023/02/21 14:49:48;;;;;;;;;;;;;;;;;;5053970;28;20015;-89
2023/02/21 14:52:31;;;;;;;;;;;;;;;;;;5053831;28;20303;-86
2023/02/21 14:54:57;;;;;;;;;;;;;;;;;;5052658;28;19994;-86
2023/02/21 14:57:37;;;;;;;;;;;;;;;;;;5052476;28;20367;-88
2023/02/21 15:00:10;;;;;;;;;;;;;;;;;;5053709;28;20288;-87
2023/02/21 15:02:55;;;;;;;;;;;;;;;;;;5054474;28;19917;-86
2023/02/21 15:05:20;;;;;;;;;;;;;;;;;;5053468;28;20364;-87
2023/02/21 15:07:49;;;;;;;;;;;;;;;;;;5052504;28;19975;-87
2023/02/21 15:10:21;;;;;;;;;;;;;;;;;;5053633;28;19996;-86
2023/02/21 15:12:57;;;;;;;;;;;;;;;;;;5054104;28;19924;-88
2023/02/21 15:15:25;;;;;;;;;;;;;;;;;;5053911;28;19917;-88
2023/02/21 15:17:58;;;;;;;;;;;;;;;;;;5052326;28;19921;-87
2023/02/21 15:20:24;;;;;;;;;;;;;;;;;;5052926;28;19917;-88
2023/02/21 15:23:00;;;;;;;;;;;;;;;;;;5052180;28;20426;-87
2023/02/21 15:25:26;;;;;;;;;;;;;;;;;;5056197;28;19917;-88
2023/02/21 15:27:55;;;;;;;;;;;;;;;;;;5056155;28;19929;-86
2023/02/21 15:30:22;;;;;;;;;;;;;;;;;;5056038;28;19925;-89
2023/02/21 15:32:54;;;;;;;;;;;;;;;;;;5057134;28;20019;-89
2023/02/21 15:35:22;;;;;;;;;;;;;;;;;;5057161;28;20379;-88
2023/02/21 15:37:47;;;;;;;;;;;;;;;;;;5055787;28;19923;-86
2023/02/21 15:40:18;;;;;;;;;;;;;;;;;;5057213;28;20338;-87
2023/02/21 15:42:44;;;;;;;;;;;;;;;;;;5055696;28;19917;-88
2023/02/21 15:45:36;;;;;;;;;;;;;;;;;;5055425;28;19917;-87
2023/02/21 15:48:02;;;;;;;;;;;;;;;;;;5049240;28;19925;-87
2023/02/21 15:50:28;;;;;;;;;;;;;;;;;;5052336;28;20007;-89
2023/02/21 15:52:53;;;;;;;;;;;;;;;;;;5052645;28;20008;-86
2023/02/21 15:55:19;;;;;;;;;;;;;;;;;;5051667;28;19931;-88
2023/02/21 15:58:12;;;;;;;;;;;;;;;;;;5047890;28;19923;-89
2023/02/21 16:00:38;;;;;;;;;;;;;;;;;;5062833;28;19928;-87
2023/02/21 16:03:22;;;;;;;;;;;;;;;;;;5054732;28;19916;-88
2023/02/21 16:05:47;;;;;;;;;;;;;;;;;;5046884;28;19917;-87
2023/02/21 16:08:13;;;;;;;;;;;;;;;;;;5056134;28;19944;-87
2023/02/21 16:10:40;;;;;;;;;;;;;;;;;;5056934;28;19917;-88
2023/02/21 16:13:05;;;;;;;;;;;;;;;;;;5056872;28;19916;-88
2023/02/21 16:15:35;;;;;;;;;;;;;;;;;;5056603;28;20299;-88
2023/02/21 16:18:02;;;;;;;;;;;;;;;;;;5056268;28;19923;-88
2023/02/21 16:20:38;;;;;;;;;;;;;;;;;;5056560;28;20403;-89
2023/02/21 16:23:18;;;;;;;;;;;;;;;;;;5056104;28;20004;-88
2023/02/21 16:25:56;;;;;;;;;;;;;;;;;;5056922;28;19917;-87
2023/02/21 16:28:21;;;;;;;;;;;;;;;;;;5054915;28;19924;-87
2023/02/21 16:30:47;;;;;;;;;;;;;;;;;;5056597;28;19919;-88
2023/02/21 16:33:13;;;;;;;;;;;;;;;;;;5055296;28;19923;-88
2023/02/21 16:35:38;;;;;;;;;;;;;;;;;;5054450;28;19967;-89
2023/02/21 16:38:05;;;;;;;;;;;;;;;;;;5055111;28;19917;-89
2023/02/21 16:40:32;;;;;;;;;;;;;;;;;;5056228;28;20376;-88
2023/02/21 16:42:59;;;;;;;;;;;;;;;;;;5054522;28;19920;-88
2023/02/21 16:45:25;;;;;;;;;;;;;;;;;;5055662;28;19920;-88
2023/02/21 16:48:02;;;;;;;;;;;;;;;;;;5054421;28;19921;-87
2023/02/21 16:50:27;;;;;;;;;;;;;;;;;;5054430;28;19921;-87
2023/02/21 16:52:53;;;;;;;;;;;;;;;;;;5056040;28;19924;-88
2023/02/21 16:55:18;;;;;;;;;;;;;;;;;;5056592;28;20026;-87
2023/02/21 16:57:48;;;;;;;;;;;;;;;;;;5054461;28;19917;-88
2023/02/21 17:00:14;;;;;;;;;;;;;;;;;;5055408;28;19921;-87
2023/02/21 17:02:39;;;;;;;;;;;;;;;;;;5054205;28;19924;-89
2023/02/21 17:05:05;;;;;;;;;;;;;;;;;;5065563;28;20290;-89
2023/02/21 17:07:30;;;;;;;;;;;;;;;;;;5068521;28;19923;-90
2023/02/21 17:09:58;;;;;;;;;;;;;;;;;;5075457;28;20283;-88
2023/02/21 17:12:24;;;;;;;;;;;;;;;;;;5073646;28;19916;-88
2023/02/21 17:14:49;;;;;;;;;;;;;;;;;;5073579;28;19966;-87
2023/02/21 17:17:16;;;;;;;;;;;;;;;;;;5075558;28;20291;-89
2023/02/21 17:19:42;;;;;;;;;;;;;;;;;;5063298;28;19920;-87
2023/02/21 17:22:07;;;;;;;;;;;;;;;;;;5055309;28;19999;-89
2023/02/21 17:24:33;;;;;;;;;;;;;;;;;;5055243;28;19967;-87
2023/02/21 17:26:58;;;;;;;;;;;;;;;;;;5054942;28;20013;-89
2023/02/21 17:29:24;;;;;;;;;;;;;;;;;;5054456;28;19917;-89
2023/02/21 17:31:53;;;;;;;;;;;;;;;;;;5055096;28;19921;-89
2023/02/21 17:34:19;;;;;;;;;;;;;;;;;;5053974;28;20039;-89
2023/02/21 17:36:47;;;;;;;;;;;;;;;;;;5055675;28;19939;-90
2023/02/21 17:39:14;;;;;;;;;;;;;;;;;;5067118;28;19970;-89
2023/02/21 17:41:47;;;;;;;;;;;;;;;;;;5076974;28;19909;-90
2023/02/21 17:44:12;;;;;;;;;;;;;;;;;;5074935;28;19928;-89
2023/02/21 17:46:38;;;;;;;;;;;;;;;;;;5073239;28;19917;-89
2023/02/21 17:49:03;;;;;;;;;;;;;;;;;;5059507;28;19966;-88
2023/02/21 17:51:28;;;;;;;;;;;;;;;;;;5055419;28;19921;-88
2023/02/21 17:53:54;;;;;;;;;;;;;;;;;;5054716;28;19956;-88
2023/02/21 17:56:20;;;;;;;;;;;;;;;;;;5053575;28;20360;-88
2023/02/21 17:58:46;;;;;;;;;;;;;;;;;;5053686;28;19932;-88
2023/02/21 18:01:17;;;;;;;;;;;;;;;;;;5053429;28;19917;-88
2023/02/21 18:03:43;;;;;;;;;;;;;;;;;;5053445;28;19916;-89
2023/02/21 18:06:08;;;;;;;;;;;;;;;;;;5055005;28;19917;-89
2023/02/21 18:08:34;;;;;;;;;;;;;;;;;;5053668;28;19923;-87
2023/02/21 18:10:59;;;;;;;;;;;;;;;;;;5073339;28;19916;-90
2023/02/21 18:13:24;;;;;;;;;;;;;;;;;;5066463;28;19970;-88
2023/02/21 18:15:50;;;;;;;;;;;;;;;;;;5047572;28;19940;-90
2023/02/21 18:18:15;;;;;;;;;;;;;;;;;;5046744;28;20149;-89
2023/02/21 18:20:41;;;;;;;;;;;;;;;;;;5049235;28;19920;-87
2023/02/21 18:23:07;;;;;;;;;;;;;;;;;;5049492;28;19920;-88
2023/02/21 18:25:33;;;;;;;;;;;;;;;;;;5060519;28;19940;-89
2023/02/21 18:27:59;;;;;;;;;;;;;;;;;;5038708;28;19921;-88
2023/02/21 18:30:25;;;;;;;;;;;;;;;;;;5047977;28;19917;-88
2023/02/21 18:32:50;;;;;;;;;;;;;;;;;;5049518;28;20445;-88
2023/02/21 18:35:16;;;;;;;;;;;;;;;;;;5051924;28;20008;-88
2023/02/21 18:37:44;;;;;;;;;;;;;;;;;;5057168;28;20413;-88
2023/02/21 18:40:12;;;;;;;;;;;;;;;;;;5072568;28;20295;-87
2023/02/21 18:42:39;;;;;;;;;;;;;;;;;;5075050;28;20383;-89
2023/02/21 18:45:04;;;;;;;;;;;;;;;;;;5072701;28;19916;-89
2023/02/21 18:47:33;;;;;;;;;;;;;;;;;;5071704;28;19940;-88
2023/02/21 18:49:58;;;;;;;;;;;;;;;;;;5067743;28;19913;-89
2023/02/21 18:52:24;;;;;;;;;;;;;;;;;;5050889;28;19917;-89
2023/02/21 18:54:49;;;;;;;;;;;;;;;;;;5051999;28;19960;-88
2023/02/21 18:57:19;;;;;;;;;;;;;;;;;;5052937;28;20376;-89
2023/02/21 18:59:44;;;;;;;;;;;;;;;;;;5037457;28;19921;-87
2023/02/21 19:02:11;;;;;;;;;;;;;;;;;;5037910;28;20383;-88
2023/02/21 19:04:36;;;;;;;;;;;;;;;;;;5055566;28;19927;-88
2023/02/21 19:07:08;;;;;;;;;;;;;;;;;;5056094;28;20003;-88
2023/02/21 19:09:34;;;;;;;;;;;;;;;;;;5056144;28;19928;-87
2023/02/21 19:12:00;;;;;;;;;;;;;;;;;;5057714;28;19921;-88
2023/02/21 19:14:25;;;;;;;;;;;;;;;;;;5057447;28;20019;-89
2023/02/21 19:16:51;;;;;;;;;;;;;;;;;;5056130;28;19952;-89
2023/02/21 19:19:16;;;;;;;;;;;;;;;;;;5057434;28;20015;-88
2023/02/21 19:21:43;;;;;;;;;;;;;;;;;;5057204;28;19962;-88
2023/02/21 19:24:08;;;;;;;;;;;;;;;;;;5057348;28;19967;-87
2023/02/21 19:26:34;;;;;;;;;;;;;;;;;;5055960;28;19917;-89
2023/02/21 19:28:59;;;;;;;;;;;;;;;;;;5055808;28;20296;-88
2023/02/21 19:31:25;;;;;;;;;;;;;;;;;;5057154;28;19917;-90
2023/02/21 19:33:50;;;;;;;;;;;;;;;;;;5056900;28;19921;-88
2023/02/21 19:36:16;;;;;;;;;;;;;;;;;;5057400;28;19956;-90
2023/02/21 19:38:41;;;;;;;;;;;;;;;;;;5055522;28;19931;-88
2023/02/21 19:41:07;;;;;;;;;;;;;;;;;;5058218;22;20292;-88
2023/02/21 19:43:33;;;;;;;;;;;;;;;;;;5035757;28;19932;-88
2023/02/21 19:45:58;;;;;;;;;;;;;;;;;;5036913;28;20380;-89
2023/02/21 19:48:24;;;;;;;;;;;;;;;;;;5036866;28;19921;-88
2023/02/21 19:50:49;;;;;;;;;;;;;;;;;;5035267;28;19917;-88
2023/02/21 19:53:15;;;;;;;;;;;;;;;;;;5035194;28;19928;-89